Terminal Aerodrome Forecast
Issued by NWS Pittsburgh, PA

Current Version | Previous Version | Graphics & Text | Print | Product List | Glossary On
Versions: 1 2 3 4 5 6 7 8 9 10 11 12 13 14 15 16 17 18 19 20 21 22 23 24 25 26 27 28 29 30 31 32 33
000
FTUS41 KPBZ 301100
TAFPIT
TAF
KPIT 301120Z 3012/3118 31015G23KT 5SM -SHSN OVC015
      TEMPO 3012/3014 2SM -SHSN BKN008
     FM301700 32013G24KT P6SM OVC025
     FM310400 31010KT P6SM SCT020=

USA.gov is the U.S. government's official web portal to all federal, state and local government web resources and services.